Time;durP1;ratioP1;P1;durP2;ratioP2;P2;SDS_P1;SDS_P2;PMS_P1;PMS_P2;Temp;Humidity;BMP_temperature;BMP_pressure;BME280_temperature;BME280_humidity;BME280_pressure;Samples;Min_cycle;Max_cycle;Signal;HPM_P1;HPM_P2
2022/03/24 00:02:12;;;;;;;5.68;3.53;;;;;;;21.64;20.38;99576.09;5007748;28;20038;-73
2022/03/24 00:04:38;;;;;;;6.90;3.38;;;;;;;21.64;20.46;99576.09;5007438;28;20025;-73
2022/03/24 00:07:04;;;;;;;5.38;3.33;;;;;;;21.67;20.57;99571.38;5018962;28;20017;-72
2022/03/24 00:09:30;;;;;;;5.05;3.75;;;;;;;21.70;20.64;99571.81;5047197;28;20064;-73
2022/03/24 00:11:55;;;;;;;5.47;3.65;;;;;;;21.72;20.84;99563.53;5050118;28;20226;-72
2022/03/24 00:14:22;;;;;;;6.13;3.15;;;;;;;21.74;20.90;99558.78;5032843;28;20027;-71
2022/03/24 00:16:48;;;;;;;5.28;2.95;;;;;;;21.74;21.20;99562.31;5010991;28;20029;-71
2022/03/24 00:19:16;;;;;;;6.22;4.22;;;;;;;21.76;21.14;99545.97;5011966;28;20139;-69
2022/03/24 00:21:43;;;;;;;4.28;3.05;;;;;;;21.75;21.38;99547.84;5010924;28;20055;-71
2022/03/24 00:24:08;;;;;;;3.80;2.75;;;;;;;21.79;21.05;99537.50;5010959;28;20028;-74
2022/03/24 00:26:34;;;;;;;8.50;3.58;;;;;;;21.80;21.32;99545.38;5015395;28;20097;-71
2022/03/24 00:29:02;;;;;;;6.47;3.45;;;;;;;21.80;21.47;99539.16;5033515;28;20033;-69
2022/03/24 00:31:28;;;;;;;5.00;3.20;;;;;;;21.80;21.44;99545.38;5026926;28;20022;-67
2022/03/24 00:33:54;;;;;;;6.82;3.20;;;;;;;21.82;21.42;99538.97;5018827;28;20038;-67
2022/03/24 00:36:20;;;;;;;5.75;3.30;;;;;;;21.83;21.46;99535.25;5027862;28;20014;-66
2022/03/24 00:38:46;;;;;;;3.13;2.75;;;;;;;21.84;21.20;99535.03;5035645;28;20030;-68
2022/03/24 00:41:12;;;;;;;4.15;3.13;;;;;;;21.85;21.15;99534.00;5030504;28;20095;-69
2022/03/24 00:43:39;;;;;;;4.88;3.35;;;;;;;21.86;21.29;99529.47;5047426;28;20036;-71
2022/03/24 00:46:05;;;;;;;6.07;3.28;;;;;;;21.88;21.20;99530.94;5010804;28;20022;-69
2022/03/24 00:48:31;;;;;;;5.47;2.97;;;;;;;21.91;21.00;99529.72;5010417;28;20014;-69
2022/03/24 00:50:57;;;;;;;5.40;3.50;;;;;;;21.91;21.01;99519.78;5010355;28;20029;-68
2022/03/24 00:53:23;;;;;;;4.18;3.05;;;;;;;21.93;21.21;99524.94;5047594;28;20032;-68
2022/03/24 00:55:49;;;;;;;5.85;3.05;;;;;;;21.94;21.08;99514.00;5049488;28;20040;-70
2022/03/24 00:58:15;;;;;;;7.28;3.35;;;;;;;21.94;21.24;99516.69;5049792;28;20017;-68
2022/03/24 01:00:42;;;;;;;6.68;3.95;;;;;;;21.96;21.30;99516.50;5049794;28;20036;-69
2022/03/24 01:03:09;;;;;;;6.50;3.42;;;;;;;21.96;21.08;99508.41;5048052;28;20048;-68
2022/03/24 01:05:37;;;;;;;7.53;3.05;;;;;;;21.98;21.11;99513.63;5033547;28;20197;-68
2022/03/24 01:08:08;;;;;;;5.18;3.60;;;;;;;21.98;21.21;99503.66;5010091;28;20022;-71
2022/03/24 01:10:35;;;;;;;5.95;3.25;;;;;;;21.99;21.32;99508.03;5010322;28;20098;-71
2022/03/24 01:13:01;;;;;;;4.00;3.22;;;;;;;22.01;21.23;99505.13;5044889;28;20053;-70
2022/03/24 01:15:27;;;;;;;6.20;2.97;;;;;;;22.02;21.10;99504.94;5049389;28;20014;-73
2022/03/24 01:17:53;;;;;;;7.28;3.30;;;;;;;22.02;21.03;99496.84;5034328;28;20053;-70
2022/03/24 01:20:21;;;;;;;5.60;3.30;;;;;;;22.04;21.30;99502.88;5029113;28;20013;-69
2022/03/24 01:22:46;;;;;;;8.20;4.25;;;;;;;22.05;20.93;99495.63;5040537;28;20019;-69
2022/03/24 01:25:12;;;;;;;9.85;4.85;;;;;;;22.07;20.81;99507.03;5015592;28;20127;-72
2022/03/24 01:27:38;;;;;;;8.73;4.03;;;;;;;22.04;20.53;99496.66;5016449;28;20130;-71
2022/03/24 01:30:08;;;;;;;4.03;3.10;;;;;;;21.99;20.68;99491.84;5029504;28;20021;-66
2022/03/24 01:32:35;;;;;;;6.15;3.75;;;;;;;21.93;20.60;99501.56;5035534;28;20021;-70
2022/03/24 01:35:01;;;;;;;5.47;4.03;;;;;;;21.87;20.46;99488.88;5048069;28;20063;-70
2022/03/24 01:37:26;;;;;;;7.60;3.83;;;;;;;21.74;20.71;99488.75;5048397;28;20017;-71
2022/03/24 01:39:52;;;;;;;6.75;3.97;;;;;;;21.30;21.29;99494.16;5047937;28;20142;-71
2022/03/24 01:42:19;;;;;;;6.22;4.55;;;;;;;20.83;21.57;99490.13;5034579;28;20029;-71
2022/03/24 01:44:46;;;;;;;9.48;3.70;;;;;;;20.39;21.98;99484.59;5037473;28;20010;-71
2022/03/24 01:47:12;;;;;;;5.82;4.30;;;;;;;20.03;22.40;99473.78;5009414;28;20097;-71
2022/03/24 01:49:47;;;;;;;5.60;3.70;;;;;;;19.73;22.57;99477.22;5009466;28;20435;-70
2022/03/24 01:52:14;;;;;;;7.38;4.25;;;;;;;19.51;22.60;99476.25;5009200;28;20046;-72
2022/03/24 01:54:43;;;;;;;8.15;4.22;;;;;;;19.30;22.66;99479.59;5022327;28;20068;-71
2022/03/24 01:57:13;;;;;;;9.20;4.38;;;;;;;19.10;22.80;99477.38;5046981;28;20280;-71
2022/03/24 01:59:40;;;;;;;9.05;4.35;;;;;;;18.96;22.85;99480.84;5048610;28;20017;-72
2022/03/24 02:02:07;;;;;;;8.45;4.68;;;;;;;18.80;22.86;99474.53;5048576;28;20088;-71
2022/03/24 02:04:35;;;;;;;7.90;4.53;;;;;;;18.68;23.18;99473.25;5047761;28;20088;-71
2022/03/24 02:07:05;;;;;;;5.15;4.15;;;;;;;18.56;23.22;99472.78;5048650;28;20021;-71
2022/03/24 02:09:32;;;;;;;8.85;4.63;;;;;;;18.44;23.31;99480.41;5047524;28;20080;-71
2022/03/24 02:11:57;;;;;;;7.70;4.63;;;;;;;18.35;23.40;99471.56;5048399;28;20169;-71
2022/03/24 02:14:23;;;;;;;7.35;4.63;;;;;;;18.26;23.38;99467.22;5048264;28;20049;-71
2022/03/24 02:16:49;;;;;;;7.35;4.75;;;;;;;18.21;23.47;99472.28;5029912;28;20024;-71
2022/03/24 02:19:17;;;;;;;9.85;4.45;;;;;;;18.12;23.38;99460.75;5040993;28;20029;-71
2022/03/24 02:21:44;;;;;;;7.82;4.85;;;;;;;18.04;23.58;99468.78;5016218;28;20030;-71
2022/03/24 02:24:12;;;;;;;7.05;5.07;;;;;;;17.96;23.73;99466.94;5008767;28;20101;-71
2022/03/24 02:26:40;;;;;;;6.43;3.97;;;;;;;17.91;23.78;99462.09;5014371;28;20025;-71
2022/03/24 02:29:07;;;;;;;8.35;4.85;;;;;;;17.84;24.04;99459.28;5035861;28;20021;-72
2022/03/24 02:31:39;;;;;;;9.57;4.78;;;;;;;17.79;23.90;99455.44;5046873;28;20037;-71
2022/03/24 02:36:51;;;;;;;9.35;4.90;;;;;;;17.64;24.07;99449.94;5008504;28;20137;-71
2022/03/24 02:39:17;;;;;;;8.85;4.97;;;;;;;17.60;24.51;99445.94;5041552;28;20017;-71
2022/03/24 02:41:53;;;;;;;9.52;5.18;;;;;;;17.56;24.50;99442.78;5047796;28;20028;-72
2022/03/24 02:44:20;;;;;;;11.80;6.55;;;;;;;17.50;24.32;99438.09;5047845;28;20021;-72
2022/03/24 02:46:47;;;;;;;13.43;5.35;;;;;;;17.48;24.57;99437.41;5046910;28;20119;-71
2022/03/24 02:49:14;;;;;;;10.07;5.30;;;;;;;17.44;24.53;99436.06;5047736;28;20292;-71
2022/03/24 02:51:40;;;;;;;15.07;6.10;;;;;;;17.38;24.56;99442.94;5046648;28;20107;-71
2022/03/24 02:54:06;;;;;;;11.77;5.57;;;;;;;17.35;24.62;99448.63;5046590;28;20032;-71
2022/03/24 02:56:31;;;;;;;8.52;5.45;;;;;;;17.29;24.94;99444.75;5046740;28;20033;-72
2022/03/24 02:58:57;;;;;;;10.05;5.57;;;;;;;17.26;24.92;99444.28;5047606;28;20060;-71
2022/03/24 03:01:26;;;;;;;11.32;6.75;;;;;;;17.20;24.78;99437.75;5047527;28;20132;-71
2022/03/24 03:03:52;;;;;;;13.32;6.10;;;;;;;17.18;25.10;99439.75;5046417;28;20025;-71
2022/03/24 03:06:19;;;;;;;10.00;6.35;;;;;;;17.16;24.76;99433.72;5033727;28;20079;-71
2022/03/24 03:08:46;;;;;;;12.88;6.47;;;;;;;17.11;24.94;99436.91;5047319;28;20013;-71
2022/03/24 03:11:11;;;;;;;10.88;6.50;;;;;;;17.07;24.93;99441.75;5047322;28;20115;-72
2022/03/24 03:13:37;;;;;;;11.80;6.40;;;;;;;17.02;25.26;99428.03;5046514;28;20025;-72
2022/03/24 03:16:04;;;;;;;11.07;6.30;;;;;;;17.00;25.30;99430.03;5029220;28;20032;-72
2022/03/24 03:18:32;;;;;;;14.07;6.68;;;;;;;16.95;25.05;99431.53;5047496;28;20021;-71
2022/03/24 03:20:59;;;;;;;15.13;8.98;;;;;;;16.95;25.00;99431.53;5047413;28;20024;-72
2022/03/24 03:23:25;;;;;;;12.27;6.72;;;;;;;16.91;25.20;99433.69;5047274;28;20025;-71
2022/03/24 03:25:50;;;;;;;12.48;7.53;;;;;;;16.88;25.22;99425.97;5045561;28;20061;-71
2022/03/24 03:28:16;;;;;;;13.07;7.65;;;;;;;16.84;25.13;99427.31;5027619;28;20030;-72
2022/03/24 03:30:43;;;;;;;13.55;7.13;;;;;;;16.83;25.22;99417.66;5027430;28;20282;-70
2022/03/24 03:33:10;;;;;;;18.20;7.15;;;;;;;16.79;25.31;99427.81;5042762;28;20134;-71
2022/03/24 03:35:36;;;;;;;16.30;7.53;;;;;;;16.76;25.54;99423.63;5047047;28;20123;-70
2022/03/24 03:38:01;;;;;;;13.73;6.78;;;;;;;16.75;25.54;99418.47;5047102;28;20025;-71
2022/03/24 03:40:27;;;;;;;11.75;7.00;;;;;;;16.71;25.65;99420.59;5047053;28;20134;-71
2022/03/24 03:42:53;;;;;;;12.82;7.07;;;;;;;16.69;25.78;99419.09;5047957;28;20024;-71
2022/03/24 03:45:18;;;;;;;14.85;7.75;;;;;;;16.62;25.29;99410.91;5050362;28;20020;-71
2022/03/24 03:47:44;;;;;;;10.43;6.95;;;;;;;16.66;25.92;99422.94;5050242;28;20063;-73
2022/03/24 03:50:09;;;;;;;14.70;7.53;;;;;;;16.63;25.53;99412.59;5051071;28;20045;-71
2022/03/24 03:52:36;;;;;;;12.18;7.30;;;;;;;16.62;25.55;99405.56;5049249;28;20019;-71
2022/03/24 03:55:02;;;;;;;12.43;6.50;;;;;;;16.62;25.49;99413.59;5050849;28;20123;-72
2022/03/24 03:57:28;;;;;;;13.35;7.30;;;;;;;16.61;25.80;99409.25;5032840;28;20033;-71
2022/03/24 03:59:53;;;;;;;10.93;6.85;;;;;;;16.61;25.87;99409.25;5051136;28;20020;-71
2022/03/24 04:02:19;;;;;;;13.85;7.35;;;;;;;16.58;25.56;99409.56;5049952;28;20021;-71
2022/03/24 04:04:45;;;;;;;13.20;7.18;;;;;;;16.59;25.95;99404.06;5050778;28;20009;-71
2022/03/24 04:07:10;;;;;;;14.38;7.50;;;;;;;16.62;26.09;99403.72;5050753;28;20028;-71
2022/03/24 04:09:35;;;;;;;14.95;8.40;;;;;;;16.68;25.67;99401.41;5050714;28;20112;-71
2022/03/24 04:12:01;;;;;;;14.55;7.38;;;;;;;16.69;25.61;99403.91;5049777;28;20036;-72
2022/03/24 04:14:26;;;;;;;19.63;8.00;;;;;;;16.75;26.12;99403.25;5050556;28;20013;-72
2022/03/24 04:16:56;;;;;;;17.35;8.60;;;;;;;16.76;25.75;99396.91;5039461;28;20025;-73
2022/03/24 04:19:24;;;;;;;15.20;8.20;;;;;;;16.79;25.82;99403.75;5049073;28;20022;-72
2022/03/24 04:21:49;;;;;;;18.42;8.98;;;;;;;16.81;25.98;99399.09;5050641;28;20017;-72
2022/03/24 04:24:15;;;;;;;25.23;10.43;;;;;;;16.86;25.81;99407.47;5050701;28;20114;-72
2022/03/24 04:26:40;;;;;;;23.60;10.05;;;;;;;16.92;25.68;99405.97;5032019;28;20151;-74
2022/03/24 04:29:06;;;;;;;17.35;9.68;;;;;;;16.97;25.90;99403.66;5041342;28;20028;-71
2022/03/24 04:31:32;;;;;;;17.55;9.85;;;;;;;17.03;25.95;99397.63;5042950;28;20189;-72
2022/03/24 04:33:57;;;;;;;25.23;10.40;;;;;;;17.12;25.79;99395.81;5010671;28;20022;-72
2022/03/24 04:36:23;;;;;;;19.40;10.52;;;;;;;17.19;25.52;99390.63;5010665;28;20022;-71
2022/03/24 04:38:48;;;;;;;23.50;10.68;;;;;;;17.29;25.75;99395.81;5010574;28;20022;-71
2022/03/24 04:41:14;;;;;;;22.92;11.02;;;;;;;17.37;25.61;99395.78;5010567;28;20042;-72
2022/03/24 04:43:39;;;;;;;19.20;10.32;;;;;;;17.45;25.53;99400.28;5013277;28;20050;-71
2022/03/24 04:46:05;;;;;;;23.73;10.57;;;;;;;17.51;25.59;99386.25;5049338;28;20024;-71
2022/03/24 04:48:36;;;;;;;33.15;12.05;;;;;;;17.59;25.56;99394.25;5050217;28;20297;-70
2022/03/24 04:51:03;;;;;;;24.08;11.55;;;;;;;17.65;25.23;99393.59;5049586;28;20032;-72
2022/03/24 04:53:29;;;;;;;22.05;10.57;;;;;;;17.76;25.24;99397.75;5046677;28;20112;-70
2022/03/24 04:55:55;;;;;;;23.42;13.38;;;;;;;17.84;25.11;99396.91;5049606;28;20103;-70
2022/03/24 04:58:20;;;;;;;25.20;12.68;;;;;;;17.92;25.01;99396.84;5049798;28;20013;-70
2022/03/24 05:00:46;;;;;;;27.13;12.23;;;;;;;17.97;24.92;99393.66;5049748;28;20017;-71
2022/03/24 05:03:11;;;;;;;30.35;12.23;;;;;;;17.96;24.98;99390.16;5048557;28;20028;-71
2022/03/24 05:05:37;;;;;;;28.38;12.73;;;;;;;18.01;24.82;99383.50;5049634;28;20018;-73
2022/03/24 05:08:03;;;;;;;26.58;14.02;;;;;;;18.04;24.61;99389.31;5048804;28;20009;-71
2022/03/24 05:10:29;;;;;;;32.50;13.73;;;;;;;18.06;24.77;99389.13;5049512;28;20028;-71
2022/03/24 05:12:55;;;;;;;30.20;11.85;;;;;;;18.16;24.70;99384.41;5049360;28;20013;-72
2022/03/24 05:15:22;;;;;;;25.85;13.40;;;;;;;18.21;24.28;99390.09;5046676;28;20078;-72
2022/03/24 05:17:48;;;;;;;29.17;12.93;;;;;;;18.27;24.66;99386.72;5011742;28;20266;-72
2022/03/24 05:20:14;;;;;;;28.90;13.68;;;;;;;18.35;24.61;99393.03;5009899;28;20022;-72
2022/03/24 05:22:40;;;;;;;26.60;13.70;;;;;;;18.44;24.62;99392.00;5027140;28;20261;-72
2022/03/24 05:25:05;;;;;;;31.15;13.38;;;;;;;18.58;24.28;99382.34;5026434;28;20013;-72
2022/03/24 05:27:32;;;;;;;28.33;12.63;;;;;;;18.75;24.07;99385.75;5036374;28;20273;-71
2022/03/24 05:29:57;;;;;;;26.02;12.70;;;;;;;18.91;24.00;99390.19;5049097;28;20021;-72
2022/03/24 05:32:23;;;;;;;25.35;12.20;;;;;;;19.00;23.85;99389.13;5048951;28;20028;-72
2022/03/24 05:34:48;;;;;;;25.23;11.45;;;;;;;18.97;23.81;99389.47;5049030;28;20056;-72
2022/03/24 05:37:14;;;;;;;24.40;13.48;;;;;;;18.88;23.97;99390.53;5048397;28;20025;-70
2022/03/24 05:39:42;;;;;;;24.75;13.27;;;;;;;18.69;24.18;99383.81;5031534;28;20142;-72
2022/03/24 05:42:07;;;;;;;25.58;13.20;;;;;;;18.64;24.36;99381.66;5048848;28;20085;-71
2022/03/24 05:44:33;;;;;;;28.67;13.50;;;;;;;18.59;24.51;99381.34;5048983;28;20029;-72
2022/03/24 05:46:59;;;;;;;33.00;13.10;;;;;;;18.54;24.32;99392.59;5048322;28;20188;-72
2022/03/24 05:49:26;;;;;;;25.25;13.20;;;;;;;18.52;24.53;99391.94;5049145;28;20031;-70
2022/03/24 05:51:52;;;;;;;28.30;13.82;;;;;;;18.50;24.59;99395.81;5048152;28;20032;-71
2022/03/24 05:54:18;;;;;;;35.03;14.57;;;;;;;18.47;24.62;99394.31;5048330;28;20209;-72
2022/03/24 05:56:45;;;;;;;29.08;14.02;;;;;;;18.49;24.75;99392.28;5048572;28;20021;-72
2022/03/24 05:59:11;;;;;;;30.63;14.07;;;;;;;18.53;24.68;99390.13;5016350;28;20026;-71
2022/03/24 06:01:39;;;;;;;24.67;13.13;;;;;;;18.48;24.68;99390.63;5013759;28;20053;-71
2022/03/24 06:04:05;;;;;;;21.45;13.05;;;;;;;18.51;24.76;99394.81;5038605;28;20014;-70
2022/03/24 06:06:37;;;;;;;31.80;14.63;;;;;;;18.48;24.74;99390.63;5023150;28;20089;-71
2022/03/24 06:09:05;;;;;;;26.27;13.52;;;;;;;18.46;24.84;99403.34;5048416;28;20017;-72
2022/03/24 06:11:33;;;;;;;34.28;14.25;;;;;;;18.44;25.09;99403.53;5047220;28;20048;-72
2022/03/24 06:13:58;;;;;;;32.72;16.00;;;;;;;18.41;24.98;99398.53;5048231;28;20032;-72
2022/03/24 06:16:24;;;;;;;27.65;12.68;;;;;;;18.38;24.92;99401.53;5048484;28;20036;-73
2022/03/24 06:18:49;;;;;;;31.05;13.57;;;;;;;18.40;24.77;99404.06;5048082;28;20139;-71
2022/03/24 06:21:15;;;;;;;24.38;12.80;;;;;;;18.42;25.20;99410.09;5047927;28;20063;-72
2022/03/24 06:23:41;;;;;;;32.55;14.45;;;;;;;18.39;25.09;99408.56;5046772;28;20028;-72
2022/03/24 06:26:07;;;;;;;32.83;12.10;;;;;;;18.40;25.03;99412.91;5036297;28;20088;-72
2022/03/24 06:28:34;;;;;;;27.40;13.98;;;;;;;18.41;25.15;99403.06;5027407;28;20017;-72
2022/03/24 06:31:00;;;;;;;26.52;13.93;;;;;;;18.39;24.89;99410.44;5028234;28;20032;-72
2022/03/24 06:33:25;;;;;;;24.98;13.38;;;;;;;18.41;25.02;99413.78;5040330;28;20027;-72
2022/03/24 06:35:51;;;;;;;24.67;13.48;;;;;;;18.38;24.79;99406.09;5047860;28;20197;-72
2022/03/24 06:38:18;;;;;;;33.13;12.70;;;;;;;18.38;24.97;99408.75;5046902;28;20035;-73
2022/03/24 06:40:43;;;;;;;27.80;12.95;;;;;;;18.41;24.88;99411.91;5047874;28;20028;-73
2022/03/24 06:43:12;;;;;;;24.58;11.63;;;;;;;18.43;25.00;99409.06;5044537;28;20026;-75
2022/03/24 06:45:38;;;;;;;26.17;11.85;;;;;;;18.48;24.88;99409.38;5047794;28;20028;-73
2022/03/24 06:48:07;;;;;;;26.92;12.88;;;;;;;18.54;24.71;99419.41;5047758;28;20032;-72
2022/03/24 06:50:34;;;;;;;19.63;10.52;;;;;;;18.56;24.71;99412.03;5030330;28;20021;-71
2022/03/24 06:52:59;;;;;;;26.42;11.32;;;;;;;18.58;24.44;99415.38;5047629;28;20067;-72
2022/03/24 06:55:25;;;;;;;21.17;11.02;;;;;;;18.60;24.47;99421.34;5047324;28;20190;-72
2022/03/24 06:57:51;;;;;;;23.98;12.20;;;;;;;18.63;24.53;99419.34;5047604;28;20021;-73
2022/03/24 07:00:16;;;;;;;18.73;11.70;;;;;;;18.65;24.58;99430.72;5047637;28;20199;-73
2022/03/24 07:02:43;;;;;;;22.52;10.57;;;;;;;18.64;24.39;99427.22;5047523;28;20044;-72
2022/03/24 07:05:11;;;;;;;16.92;10.07;;;;;;;18.65;24.26;99423.53;5047469;28;20028;-72
2022/03/24 07:07:37;;;;;;;24.63;11.88;;;;;;;18.66;24.03;99425.19;5047463;28;20210;-71
2022/03/24 07:10:03;;;;;;;24.58;11.13;;;;;;;18.67;24.17;99417.97;5047430;28;20029;-73
2022/03/24 07:12:28;;;;;;;21.90;10.38;;;;;;;18.70;24.15;99425.69;5047415;28;20040;-72
2022/03/24 07:14:54;;;;;;;16.52;10.00;;;;;;;18.70;24.24;99421.13;5047396;28;20017;-72
2022/03/24 07:17:19;;;;;;;15.98;9.57;;;;;;;18.76;24.33;99431.16;5010214;28;20041;-72
2022/03/24 07:19:45;;;;;;;17.55;10.38;;;;;;;18.83;24.36;99425.06;5007870;28;20033;-72
2022/03/24 07:22:11;;;;;;;20.88;10.13;;;;;;;18.91;24.31;99427.72;5007836;28;20085;-73
2022/03/24 07:24:36;;;;;;;22.02;10.57;;;;;;;19.02;24.13;99424.66;5007817;28;20018;-72
2022/03/24 07:27:02;;;;;;;19.70;9.95;;;;;;;19.17;24.13;99426.56;5037453;28;20086;-71
2022/03/24 07:29:28;;;;;;;25.63;10.55;;;;;;;19.27;23.63;99429.00;5046759;28;20029;-72
2022/03/24 07:31:54;;;;;;;18.13;10.82;;;;;;;19.41;23.76;99425.50;5045647;28;20022;-73
2022/03/24 07:34:20;;;;;;;20.58;9.30;;;;;;;19.50;23.59;99421.72;5040076;28;20091;-73
2022/03/24 07:36:46;;;;;;;19.45;9.48;;;;;;;19.60;23.45;99429.53;5047171;28;20104;-72
2022/03/24 07:39:11;;;;;;;17.45;8.95;;;;;;;19.71;23.67;99435.47;5047164;28;20037;-73
2022/03/24 07:41:37;;;;;;;21.38;11.20;;;;;;;19.83;23.28;99437.53;5046255;28;20107;-73
2022/03/24 07:44:04;;;;;;;19.88;9.00;;;;;;;19.90;23.32;99426.09;5047352;28;20025;-72
2022/03/24 07:46:29;;;;;;;18.55;9.70;;;;;;;19.94;23.07;99435.41;5046249;28;20021;-72
2022/03/24 07:48:55;;;;;;;22.52;9.57;;;;;;;19.96;23.13;99433.38;5047079;28;20048;-72
2022/03/24 07:51:20;;;;;;;15.60;9.52;;;;;;;19.95;23.14;99429.03;5046197;28;20044;-72
2022/03/24 07:53:49;;;;;;;13.35;8.98;;;;;;;19.97;23.18;99427.00;5046360;28;20032;-72
2022/03/24 07:56:16;;;;;;;19.55;9.13;;;;;;;19.95;23.07;99424.50;5045443;28;20083;-71
2022/03/24 07:58:42;;;;;;;15.27;9.00;;;;;;;19.93;22.96;99431.06;5043044;28;20087;-72
2022/03/24 08:01:08;;;;;;;17.65;9.35;;;;;;;19.91;22.97;99427.75;5047026;28;20290;-72
2022/03/24 08:03:34;;;;;;;19.35;9.23;;;;;;;19.98;22.91;99425.97;5046972;28;20148;-72
2022/03/24 08:06:03;;;;;;;20.92;9.32;;;;;;;20.06;22.68;99430.44;5046722;28;20032;-71
2022/03/24 08:08:30;;;;;;;16.15;8.55;;;;;;;20.06;22.61;99425.91;5007484;28;20026;-71
2022/03/24 08:10:56;;;;;;;14.93;8.05;;;;;;;20.09;22.90;99432.75;5007357;28;20022;-71
2022/03/24 08:13:23;;;;;;;13.45;8.45;;;;;;;20.13;22.56;99428.69;5007443;28;20037;-72
2022/03/24 08:15:49;;;;;;;13.50;8.38;;;;;;;20.13;22.44;99424.13;5007067;28;20007;-72
2022/03/24 08:18:16;;;;;;;11.77;8.18;;;;;;;20.07;22.40;99429.41;5037555;28;20078;-73
2022/03/24 08:20:43;;;;;;;15.40;7.75;;;;;;;19.99;22.53;99426.84;5046674;28;20087;-72
2022/03/24 08:23:10;;;;;;;17.00;8.00;;;;;;;19.97;22.63;99418.94;5029402;28;20257;-73
2022/03/24 08:25:37;;;;;;;17.35;7.88;;;;;;;19.92;22.52;99429.44;5040182;28;20053;-73
2022/03/24 08:28:03;;;;;;;17.17;8.98;;;;;;;19.85;22.31;99426.63;5012615;28;20029;-71
2022/03/24 08:30:28;;;;;;;16.92;8.65;;;;;;;19.78;22.23;99429.19;5050341;28;20048;-71
2022/03/24 08:32:54;;;;;;;15.18;7.80;;;;;;;19.70;22.56;99421.22;5046862;28;20232;-72
2022/03/24 08:35:20;;;;;;;15.65;8.25;;;;;;;19.66;22.31;99425.28;5050178;28;20227;-71
2022/03/24 08:37:45;;;;;;;15.60;8.85;;;;;;;19.63;22.46;99414.94;5050204;28;20029;-72
2022/03/24 08:40:11;;;;;;;15.98;8.85;;;;;;;19.62;22.45;99421.31;5050223;28;20131;-72
2022/03/24 08:42:38;;;;;;;14.57;7.88;;;;;;;19.57;22.29;99415.66;5046868;28;20040;-73
2022/03/24 08:45:05;;;;;;;21.08;8.25;;;;;;;19.55;22.29;99418.53;5050205;28;20025;-72
2022/03/24 08:47:31;;;;;;;11.55;7.50;;;;;;;19.52;22.21;99417.03;5049994;28;20017;-72
2022/03/24 08:49:57;;;;;;;17.52;8.05;;;;;;;19.54;22.21;99421.38;5050018;28;20149;-72
2022/03/24 08:52:23;;;;;;;16.95;8.02;;;;;;;19.51;22.36;99417.22;5048164;28;20025;-71
2022/03/24 08:54:49;;;;;;;10.80;7.28;;;;;;;19.49;22.16;99409.31;5049785;28;20282;-71
2022/03/24 08:57:15;;;;;;;13.80;6.55;;;;;;;19.48;22.29;99423.75;5049765;28;20265;-72
2022/03/24 08:59:40;;;;;;;16.55;7.97;;;;;;;19.46;22.37;99420.44;5049912;28;20025;-72
2022/03/24 09:02:06;;;;;;;15.23;6.57;;;;;;;19.46;22.43;99417.75;5047601;28;20088;-72
2022/03/24 09:04:31;;;;;;;12.73;6.72;;;;;;;19.47;22.57;99416.75;5046289;28;20099;-70
2022/03/24 09:06:57;;;;;;;18.50;6.88;;;;;;;19.51;22.87;99417.22;5035611;28;20345;-71
2022/03/24 09:09:22;;;;;;;13.70;6.55;;;;;;;19.60;23.18;99415.28;5046023;28;20104;-72
2022/03/24 09:11:51;;;;;;;11.73;6.72;;;;;;;19.73;22.82;99412.81;5047714;28;20025;-73
2022/03/24 09:14:17;;;;;;;11.45;6.38;;;;;;;19.83;22.50;99417.91;5045695;28;20026;-73
2022/03/24 09:16:44;;;;;;;14.70;6.10;;;;;;;19.86;22.36;99414.00;5045323;28;20036;-73
2022/03/24 09:19:10;;;;;;;14.77;6.97;;;;;;;19.89;22.19;99414.50;5045587;28;20089;-76
2022/03/24 09:21:36;;;;;;;12.50;6.55;;;;;;;19.94;22.50;99416.63;5049362;28;20025;-73
2022/03/24 09:24:01;;;;;;;13.25;7.10;;;;;;;19.97;22.50;99417.13;5049306;28;20022;-75
2022/03/24 09:26:27;;;;;;;18.33;6.72;;;;;;;20.04;22.65;99414.50;5034562;28;20018;-74
2022/03/24 09:28:52;;;;;;;10.35;5.88;;;;;;;20.08;22.37;99412.28;5046659;28;20021;-70
2022/03/24 09:31:21;;;;;;;13.80;6.07;;;;;;;20.09;22.53;99411.25;5020735;28;20032;-70
2022/03/24 09:33:47;;;;;;;12.38;6.00;;;;;;;20.12;22.68;99411.72;5034130;28;20080;-70
2022/03/24 09:36:12;;;;;;;15.68;5.65;;;;;;;20.12;22.39;99419.78;5044123;28;20017;-74
2022/03/24 09:38:38;;;;;;;10.25;5.55;;;;;;;20.19;22.68;99419.03;5019170;28;20092;-79
2022/03/24 09:41:06;;;;;;;11.52;5.82;;;;;;;20.27;22.96;99403.66;5030764;28;20028;-73
2022/03/24 09:43:36;;;;;;;11.52;5.60;;;;;;;20.37;22.57;99413.28;5030114;28;20295;-72
2022/03/24 09:46:02;;;;;;;10.57;5.70;;;;;;;20.39;22.50;99414.75;5043375;28;20021;-73
2022/03/24 09:48:28;;;;;;;10.00;4.90;;;;;;;20.38;22.38;99413.06;5048923;28;20250;-72
2022/03/24 09:50:54;;;;;;;8.77;5.32;;;;;;;20.41;22.28;99407.31;5047528;28;20028;-71
2022/03/24 09:53:20;;;;;;;10.65;4.50;;;;;;;20.41;22.42;99411.88;5045774;28;20135;-71
2022/03/24 09:55:47;;;;;;;9.00;4.00;;;;;;;20.42;22.51;99408.19;5046717;28;20033;-74
2022/03/24 09:58:13;;;;;;;12.77;3.85;;;;;;;20.40;22.22;99404.84;5027968;28;20041;-74
2022/03/24 10:00:39;;;;;;;6.13;3.80;;;;;;;20.40;22.31;99408.34;5028880;28;20021;-73
2022/03/24 10:03:14;;;;;;;7.57;5.07;;;;;;;20.42;22.31;99408.19;5041917;28;20017;-75
2022/03/24 10:06:00;;;;;;;6.32;3.63;;;;;;;20.41;22.03;99404.63;5047830;28;20063;-73
2022/03/24 10:08:27;;;;;;;6.10;4.18;;;;;;;20.38;22.09;99402.31;5048618;28;20056;-73
2022/03/24 10:11:01;;;;;;;10.77;4.28;;;;;;;20.39;22.05;99403.16;5048436;28;20052;-72
2022/03/24 10:13:53;;;;;;;6.85;3.75;;;;;;;20.40;21.85;99405.66;5034139;28;20112;-71
2022/03/24 10:16:48;;;;;;;6.05;4.30;;;;;;;20.40;21.86;99404.84;5028712;28;20234;-76
2022/03/24 10:19:16;;;;;;;7.75;4.30;;;;;;;20.40;21.67;99402.16;4996398;28;20069;-75
2022/03/24 10:21:44;;;;;;;6.43;4.70;;;;;;;20.42;21.73;99406.31;5015818;28;20041;-75
2022/03/24 10:24:15;;;;;;;9.25;4.80;;;;;;;20.43;21.50;99402.59;5048263;28;20021;-73
2022/03/24 10:26:45;;;;;;;8.77;4.72;;;;;;;20.43;21.50;99401.78;5021743;28;20040;-73
2022/03/24 10:29:24;;;;;;;9.05;4.68;;;;;;;20.41;21.49;99403.81;5008671;28;20166;-73
2022/03/24 10:32:04;;;;;;;9.52;5.38;;;;;;;20.41;21.21;99411.88;5012221;28;20026;-76
2022/03/24 10:34:46;;;;;;;9.57;4.57;;;;;;;20.35;21.42;99408.09;5034420;28;20079;-76
2022/03/24 10:37:19;;;;;;;7.57;4.75;;;;;;;20.33;21.31;99403.91;5046162;28;20060;-75
2022/03/24 10:39:55;;;;;;;8.27;5.05;;;;;;;20.30;21.04;99409.66;5047180;28;20029;-74
2022/03/24 10:42:24;;;;;;;9.30;5.22;;;;;;;20.26;21.07;99411.88;5046150;28;20065;-73
2022/03/24 10:45:15;;;;;;;8.68;4.97;;;;;;;20.25;21.24;99407.53;5015120;28;20022;-74
2022/03/24 10:47:40;;;;;;;;;;;;;;;20.21;21.28;99403.56;5008756;28;20080;-75
2022/03/24 10:50:42;;;;;;;10.93;4.93;;;;;;;20.24;20.82;99411.25;5024251;28;19897;-75
2022/03/24 10:53:19;;;;;;;6.30;4.63;;;;;;;20.18;20.91;99403.94;4948209;29;20026;-72
2022/03/24 10:55:50;;;;;;;9.30;5.20;;;;;;;20.16;20.99;99412.16;5000884;28;20026;-75
2022/03/24 10:58:27;;;;;;;9.90;4.80;;;;;;;20.11;20.73;99407.38;5042354;28;20034;-73
2022/03/24 11:00:57;;;;;;;11.18;4.97;;;;;;;20.14;21.03;99400.81;5029368;28;20017;-73
2022/03/24 11:03:22;;;;;;;9.75;5.18;;;;;;;20.17;20.85;99397.72;5027824;28;20072;-75
2022/03/24 11:05:48;;;;;;;10.85;5.15;;;;;;;20.19;20.99;99398.38;5029264;28;20017;-75
2022/03/24 11:08:18;;;;;;;10.80;5.72;;;;;;;20.26;21.01;99399.31;5046418;28;20029;-74
2022/03/24 11:10:49;;;;;;;7.82;4.80;;;;;;;20.31;21.02;99404.09;5047393;28;20021;-73
2022/03/24 11:13:42;;;;;;;14.32;5.03;;;;;;;20.35;21.01;99397.34;5047316;28;20028;-77
2022/03/24 11:16:08;;;;;;;9.73;4.22;;;;;;;20.38;21.13;99404.19;5032018;28;20057;-72
2022/03/24 11:18:34;;;;;;;8.95;5.68;;;;;;;20.38;20.96;99398.81;5046350;28;20199;-71
2022/03/24 11:21:03;;;;;;;8.98;4.75;;;;;;;20.40;20.76;99405.66;5047281;28;20087;-73
2022/03/24 11:23:35;;;;;;;7.32;5.18;;;;;;;20.38;21.09;99402.31;5047508;28;20088;-73
2022/03/24 11:26:02;;;;;;;;;;;;;;;20.29;20.90;99406.16;5037609;28;20024;-75
2022/03/24 11:28:27;;;;;;;7.38;4.10;;;;;;;20.31;20.92;99401.41;5043743;28;20018;-72
2022/03/24 11:30:53;;;;;;;9.85;4.40;;;;;;;20.35;20.83;99401.88;5043041;28;20036;-78